INFORMACIÓN METAR y TAF
METAR FOR UNNT
ADDS - METARS form results

(0306 UTC 28 January 2021)
Data provider http://aviationweather.gov/metar/data/
 
METAR text: UNNT 280300Z 19003MPS 9999 -SN BKN007 OVC020 M06/M07 Q1028 R25/390138 R16/492030 NOSIG RMK QFE761/1014
Conditions at: UNNT (TOLMACHEVO , RU) observed 0300 UTC 28 January 2021
Temperature: -6.0°C (21°F)
Dewpoint: -7.0°C (19°F) [RH = 93%]
Pressure (altimeter): 30.35 inches Hg (1028.0 mb)
Winds: from the S (190 degrees) at 7 MPH (6 knots; 3.1 m/s)
Visibility: 6 or more miles (10+ km)
Ceiling: 700 feet AGL
Clouds: broken clouds at 700 feet AGL
overcast cloud deck at 2000 feet AGL
Weather: -SN  (light snow)

METAR text: UNNT 280230Z 21003MPS 8000 -SN BKN007 OVC020 M06/M07 Q1028 R25/390138 R16/492030 NOSIG RMK QFE761/1014
Conditions at: UNNT (TOLMACHEVO , RU) observed 0230 UTC 28 January 2021
Temperature: -6.0°C (21°F)
Dewpoint: -7.0°C (19°F) [RH = 93%]
Pressure (altimeter): 30.35 inches Hg (1028.0 mb)
Winds: from the SSW (210 degrees) at 7 MPH (6 knots; 3.1 m/s)
Visibility: 5 miles ( 8 km)
Ceiling: 700 feet AGL
Clouds: broken clouds at 700 feet AGL
overcast cloud deck at 2000 feet AGL
Weather: -SN  (light snow)

Forecast for: UNNT (TOLMACHEVO , RU)
Text: TAF UNNT 280200Z 2803/2903 23003G08MPS 8000 -SHSN BKN005 BKN016CB
Forecast period: 0300 to 0900 UTC 28 January 2021
Forecast type: FROM: standard forecast or significant change
Winds: from the SW (230 degrees) at 7 MPH (6 knots; 3.1 m/s)
gusting to 18 MPH (16 knots; 8.2 m/s)
Visibility: 5 miles (8 km)
Ceiling: 500 feet AGL
Clouds: broken clouds at 500 feet AGL
broken clouds at 1600 feet AGL
Weather: -SHSN  (light snow showers)
Text: TEMPO 2803/2809 3000 -SHSN
Forecast period: 0300 to 0900 UTC 28 January 2021
Forecast type: TEMPORARY: The following changes expected for less than half the time period
Visibility: 1.86 miles (2.99 km)
Ceiling: unknown
Clouds: missing
Weather: -SHSN  (light snow showers)
Text: FM280900 22006G13MPS 8000 -SHSN BKN016CB
Forecast period: 0900 to 1800 UTC 28 January 2021
Forecast type: FROM: standard forecast or significant change
Winds: from the SW (220 degrees) at 14 MPH (12 knots; 6.2 m/s)
gusting to 29 MPH (25 knots; 12.9 m/s)
Visibility: 5 miles (8 km)
Ceiling: 1600 feet AGL
Clouds: broken clouds at 1600 feet AGL
Weather: -SHSN  (light snow showers)
Text: FM281800 22008G16MPS 8000 -SHSN BKN016CB
Forecast period: 1800 UTC 28 January 2021 to 0300 UTC 29 January 2021
Forecast type: FROM: standard forecast or significant change
Winds: from the SW (220 degrees) at 18 MPH (16 knots; 8.2 m/s)
gusting to 36 MPH (31 knots; 15.9 m/s)
Visibility: 5 miles (8 km)
Ceiling: 1600 feet AGL
Clouds: broken clouds at 1600 feet AGL
Weather: -SHSN  (light snow showers)

 MAPA DE AEROPUERTO

 INFORMACIÓN DE PISTA